TimePST,TemperatureF,Dew PointF,Humidity,Sea Level PressureIn,VisibilityMPH,Wind Direction,Wind SpeedMPH,Gust SpeedMPH,PrecipitationIn,Events,Conditions,WindDirDegrees,DateUTC
12:53 AM,37.9,32.0,79,30.30,10.0,Calm,Calm,-,N/A,,Clear,0,2013-03-04 08:53:00
1:53 AM,37.9,33.1,83,30.29,10.0,NNE,3.5,-,N/A,,Clear,30,2013-03-04 09:53:00
2:53 AM,37.0,33.1,86,30.28,10.0,Calm,Calm,-,N/A,,Clear,0,2013-03-04 10:53:00
3:53 AM,37.0,32.0,82,30.27,10.0,Calm,Calm,-,N/A,,Clear,0,2013-03-04 11:53:00
4:53 AM,36.0,30.9,82,30.27,10.0,Calm,Calm,-,N/A,,Clear,0,2013-03-04 12:53:00
5:53 AM,35.1,30.9,85,30.25,10.0,Calm,Calm,-,N/A,,Clear,0,2013-03-04 13:53:00
6:53 AM,35.1,30.0,82,30.24,10.0,NNE,3.5,-,N/A,,Clear,30,2013-03-04 14:53:00
7:53 AM,35.1,30.9,85,30.24,10.0,Calm,Calm,-,N/A,,Clear,0,2013-03-04 15:53:00
8:53 AM,37.0,30.9,79,30.22,10.0,NNE,5.8,-,N/A,,Clear,30,2013-03-04 16:53:00
9:53 AM,41.0,32.0,70,30.22,10.0,North,8.1,-,N/A,,Clear,360,2013-03-04 17:53:00
10:53 AM,43.0,30.0,60,30.19,10.0,Variable,6.9,-,N/A,,Clear,0,2013-03-04 18:53:00
11:53 AM,45.0,30.0,56,30.16,10.0,North,9.2,18.4,N/A,,Clear,10,2013-03-04 19:53:00
12:53 PM,46.9,28.0,48,30.13,10.0,North,8.1,-,N/A,,Clear,10,2013-03-04 20:53:00
1:53 PM,48.9,28.0,44,30.09,10.0,North,9.2,-,N/A,,Clear,360,2013-03-04 21:53:00
2:53 PM,51.1,27.0,39,30.06,10.0,North,13.8,-,N/A,,Clear,10,2013-03-04 22:53:00
3:53 PM,51.1,27.0,39,30.03,10.0,North,13.8,-,N/A,,Clear,360,2013-03-04 23:53:00
4:53 PM,50.0,28.9,44,30.01,10.0,North,12.7,-,N/A,,Clear,360,2013-03-05 00:53:00
5:53 PM,48.0,30.0,50,29.99,10.0,North,12.7,-,N/A,,Clear,360,2013-03-05 01:53:00
6:53 PM,46.9,32.0,56,29.98,10.0,North,12.7,-,N/A,,Clear,10,2013-03-05 02:53:00
7:53 PM,46.0,30.9,56,29.96,10.0,NNE,5.8,-,N/A,,Clear,20,2013-03-05 03:53:00
8:53 PM,45.0,30.0,56,29.96,10.0,North,4.6,-,N/A,,Clear,10,2013-03-05 04:53:00
9:53 PM,45.0,27.0,49,29.95,10.0,NNE,4.6,-,N/A,,Clear,30,2013-03-05 05:53:00
11:53 PM,44.1,25.0,47,29.92,10.0,Calm,Calm,-,N/A,,Clear,0,2013-03-05 07:53:00